createdAt,value
2019-05-21T00:01:23.895Z,29.10
2019-05-21T00:03:57.047Z,23.27
2019-05-21T00:09:03.143Z,30.92
2019-05-21T00:11:35.484Z,25.35
2019-05-21T00:14:08.517Z,23.45
2019-05-21T00:16:40.972Z,27.05
2019-05-21T00:19:13.828Z,25.10
2019-05-21T00:24:18.059Z,28.77
2019-05-21T00:26:50.729Z,26.23
2019-05-21T00:32:49.344Z,26.30
2019-05-21T00:35:57.758Z,25.20
2019-05-21T00:39:05.932Z,28.10
2019-05-21T00:42:09.984Z,27.82
2019-05-21T00:44:44.554Z,26.40
2019-05-21T00:47:17.854Z,27.52
2019-05-21T00:49:50.947Z,27.27
2019-05-21T00:52:23.728Z,22.87
2019-05-21T00:54:56.811Z,22.32
2019-05-21T00:57:29.846Z,27.52
2019-05-21T01:00:02.360Z,32.78
2019-05-21T01:05:07.647Z,41.45
2019-05-21T01:07:40.270Z,26.62
2019-05-21T01:10:12.833Z,29.27
2019-05-21T01:12:45.902Z,38.65
2019-05-21T01:15:21.228Z,32.55
2019-05-21T01:17:53.986Z,34.53
2019-05-21T01:20:26.198Z,28.10
2019-05-21T01:23:00.045Z,27.85
2019-05-21T01:25:34.651Z,26.90
2019-05-21T01:28:07.208Z,27.13
2019-05-21T01:30:40.862Z,25.72
2019-05-21T01:33:13.810Z,28.20
2019-05-21T01:35:46.088Z,29.98
2019-05-21T01:38:18.726Z,29.07
2019-05-21T01:40:50.983Z,27.35
2019-05-21T01:43:23.670Z,32.98
2019-05-21T01:45:55.979Z,24.50
2019-05-21T01:48:29.018Z,38.17
2019-05-21T01:51:01.304Z,28.65
2019-05-21T01:53:34.941Z,40.80
2019-05-21T01:56:07.539Z,25.85
2019-05-21T01:58:41.667Z,27.05
2019-05-21T02:01:15.528Z,29.70
2019-05-21T02:03:48.316Z,31.23
2019-05-21T02:08:52.452Z,29.70
2019-05-21T02:11:25.979Z,30.52
2019-05-21T02:16:30.891Z,31.35
2019-05-21T02:19:04.051Z,34.33
2019-05-21T02:24:08.675Z,32.67
2019-05-21T02:26:42.024Z,34.40
2019-05-21T02:31:46.523Z,39.92
2019-05-21T02:34:19.897Z,30.62
2019-05-21T02:36:52.255Z,34.63
2019-05-21T02:39:32.198Z,30.82
2019-05-21T02:42:08.123Z,30.65
2019-05-21T02:44:43.374Z,32.88
2019-05-21T02:47:16.471Z,38.17
2019-05-21T02:49:50.834Z,33.55
2019-05-21T02:52:23.455Z,34.65
2019-05-21T02:54:57.943Z,33.02
2019-05-21T02:57:50.516Z,33.05
2019-05-21T03:00:28.798Z,32.35
2019-05-21T03:03:04.509Z,34.38
2019-05-21T03:05:36.914Z,41.60
2019-05-21T03:08:10.276Z,31.55
2019-05-21T03:10:42.927Z,38.88
2019-05-21T03:13:17.062Z,39.00
2019-05-21T03:15:50.244Z,34.98
2019-05-21T03:18:22.886Z,36.00
2019-05-21T03:20:55.458Z,36.50
2019-05-21T03:23:27.944Z,38.67
2019-05-21T03:26:00.851Z,38.38
2019-05-21T03:28:33.299Z,40.73
2019-05-21T03:31:06.129Z,41.55
2019-05-21T03:33:38.317Z,57.00
2019-05-21T03:36:11.775Z,39.35
2019-05-21T03:38:44.143Z,80.12
2019-05-21T03:41:16.941Z,41.33
2019-05-21T03:43:49.912Z,40.60
2019-05-21T03:46:22.968Z,40.25
2019-05-21T03:48:55.193Z,36.33
2019-05-21T03:51:28.075Z,31.45
2019-05-21T03:54:00.930Z,32.13
2019-05-21T03:56:33.393Z,31.05
2019-05-21T03:59:06.078Z,33.38
2019-05-21T04:01:39.028Z,34.13
2019-05-21T04:04:11.309Z,30.77
2019-05-21T04:06:52.122Z,28.30
2019-05-21T04:09:18.074Z,30.43
2019-05-21T04:11:53.258Z,30.23
2019-05-21T04:14:32.657Z,37.75
2019-05-21T04:17:09.642Z,34.92
2019-05-21T04:19:43.750Z,32.05
2019-05-21T04:22:18.086Z,32.17
2019-05-21T04:24:50.497Z,36.30
2019-05-21T04:27:23.049Z,35.28
2019-05-21T04:29:55.312Z,39.05
2019-05-21T04:32:27.857Z,35.85
2019-05-21T04:35:00.191Z,37.95
2019-05-21T04:37:34.429Z,40.85
2019-05-21T04:40:07.065Z,42.30
2019-05-21T04:42:40.014Z,33.70
2019-05-21T04:45:12.770Z,41.02
2019-05-21T04:50:16.390Z,47.65
2019-05-21T04:52:50.682Z,44.45
2019-05-21T04:55:23.312Z,44.93
2019-05-21T05:00:27.277Z,41.05
2019-05-21T05:03:00.200Z,30.17
2019-05-21T05:08:04.451Z,32.30
2019-05-21T05:10:36.845Z,37.45
2019-05-21T05:13:10.032Z,32.10
2019-05-21T05:15:42.679Z,39.08
2019-05-21T05:18:15.150Z,45.10
2019-05-21T05:23:19.288Z,35.43
2019-05-21T05:25:52.989Z,48.35
2019-05-21T05:28:28.064Z,40.28
2019-05-21T05:30:59.186Z,39.73
2019-05-21T05:33:31.568Z,36.60
2019-05-21T05:36:04.799Z,37.83
2019-05-21T05:38:38.625Z,37.53
2019-05-21T05:41:11.248Z,43.25
2019-05-21T05:43:43.958Z,36.03
2019-05-21T05:46:16.357Z,43.48
2019-05-21T05:48:50.417Z,46.02
2019-05-21T05:51:33.459Z,40.30
2019-05-21T05:54:07.812Z,42.65
2019-05-21T05:56:40.670Z,36.00
2019-05-21T05:59:14.511Z,37.20
2019-05-21T06:01:48.729Z,47.53
2019-05-21T06:04:21.335Z,43.38
2019-05-21T06:06:53.869Z,47.25
2019-05-21T06:09:26.711Z,47.53
2019-05-21T06:14:31.775Z,50.80
2019-05-21T06:17:04.272Z,47.23
2019-05-21T06:22:08.654Z,48.25
2019-05-21T06:24:41.122Z,49.23
2019-05-21T06:27:13.813Z,54.55
2019-05-21T06:29:46.317Z,48.33
2019-05-21T06:32:18.622Z,49.33
2019-05-21T06:34:50.995Z,48.83
2019-05-21T06:37:23.309Z,52.62
2019-05-21T06:39:56.120Z,48.98
2019-05-21T06:45:11.233Z,47.95
2019-05-21T06:47:43.702Z,47.93
2019-05-21T06:50:16.521Z,57.15
2019-05-21T06:52:48.820Z,49.58
2019-05-21T06:55:21.599Z,56.80
2019-05-21T06:57:53.893Z,45.45
2019-05-21T07:00:27.502Z,46.33
2019-05-21T07:03:01.795Z,45.75
2019-05-21T07:05:37.396Z,45.20
2019-05-21T07:08:11.256Z,49.30
2019-05-21T07:10:44.121Z,74.07
2019-05-21T07:15:48.452Z,47.20
2019-05-21T07:18:20.775Z,38.33
2019-05-21T07:20:53.947Z,63.92
2019-05-21T07:25:59.244Z,52.20
2019-05-21T07:28:31.411Z,38.00
2019-05-21T07:31:07.874Z,62.27
2019-05-21T07:33:39.729Z,61.18
2019-05-21T07:36:12.654Z,58.28
2019-05-21T07:41:20.261Z,59.95
2019-05-21T07:43:52.337Z,72.70
2019-05-21T07:48:55.912Z,93.82
2019-05-21T07:51:28.373Z,61.05
2019-05-21T07:54:00.743Z,71.30
2019-05-21T07:56:33.939Z,57.50
2019-05-21T07:59:06.788Z,55.80
2019-05-21T08:01:40.011Z,61.98
2019-05-21T08:06:44.304Z,68.28
2019-05-21T08:09:17.002Z,53.52
2019-05-21T08:11:50.028Z,61.83
2019-05-21T08:14:23.169Z,59.35
2019-05-21T08:19:31.269Z,60.98
2019-05-21T08:22:03.940Z,60.17
2019-05-21T08:24:36.672Z,61.70
2019-05-21T08:27:09.194Z,59.45
2019-05-21T08:29:41.629Z,59.63
2019-05-21T08:32:13.880Z,65.55
2019-05-21T08:34:46.344Z,59.00
2019-05-21T08:37:19.157Z,63.60
2019-05-21T08:39:51.762Z,64.10
2019-05-21T08:42:24.365Z,86.72
2019-05-21T08:44:56.831Z,61.63
2019-05-21T08:47:32.111Z,71.35
2019-05-21T08:50:05.976Z,66.65
2019-05-21T08:52:38.764Z,63.58
2019-05-21T08:55:14.353Z,54.67
2019-05-21T08:58:05.066Z,56.75
2019-05-21T09:00:22.822Z,54.60
2019-05-21T09:02:55.569Z,48.00
2019-05-21T09:08:00.046Z,45.90
2019-05-21T09:10:33.005Z,61.28
2019-05-21T09:13:06.139Z,47.40
2019-05-21T09:15:39.247Z,47.08
2019-05-21T09:18:12.218Z,43.85
2019-05-21T09:23:16.869Z,46.45
2019-05-21T09:25:49.780Z,48.87
2019-05-21T09:28:22.587Z,51.50
2019-05-21T09:30:54.773Z,46.63
2019-05-21T09:33:27.527Z,51.80
2019-05-21T09:35:59.918Z,51.02
2019-05-21T09:38:32.706Z,51.05
2019-05-21T09:41:04.867Z,48.13
2019-05-21T09:43:37.338Z,48.13
2019-05-21T09:46:10.122Z,38.53
2019-05-21T09:51:19.893Z,47.00
2019-05-21T09:54:06.411Z,44.58
2019-05-21T09:56:38.499Z,45.38
2019-05-21T09:59:25.982Z,45.33
2019-05-21T10:02:03.743Z,45.28
2019-05-21T10:04:36.704Z,48.40
2019-05-21T10:07:09.495Z,40.95
2019-05-21T10:09:42.814Z,46.80
2019-05-21T10:12:16.361Z,40.80
2019-05-21T10:14:50.324Z,43.90
2019-05-21T10:19:58.637Z,41.28
2019-05-21T10:22:29.990Z,47.23
2019-05-21T10:25:02.782Z,35.83
2019-05-21T10:30:08.524Z,51.92
2019-05-21T10:32:42.890Z,52.83
2019-05-21T10:35:15.533Z,49.40
2019-05-21T10:37:54.917Z,47.98
2019-05-21T10:40:22.419Z,47.88
2019-05-21T10:45:27.540Z,52.17
2019-05-21T10:47:59.948Z,68.35
2019-05-21T10:50:32.185Z,56.83
2019-05-21T10:53:04.946Z,65.40
2019-05-21T10:55:38.069Z,77.40
2019-05-21T10:58:18.155Z,76.77
2019-05-21T11:00:51.895Z,81.05
2019-05-21T11:03:30.392Z,79.70
2019-05-21T11:06:10.523Z,80.83
2019-05-21T11:08:42.464Z,53.65
2019-05-21T11:11:14.733Z,71.42
2019-05-21T11:13:47.519Z,72.12
2019-05-21T11:16:20.382Z,84.80
2019-05-21T11:18:53.102Z,78.42
2019-05-21T11:21:26.071Z,71.53
2019-05-21T11:23:58.645Z,79.03
2019-05-21T11:26:31.341Z,82.10
2019-05-21T11:29:05.198Z,76.50
2019-05-21T11:31:38.390Z,69.12
2019-05-21T11:34:11.005Z,88.15
2019-05-21T11:36:44.706Z,78.67
2019-05-21T11:39:18.057Z,73.15
2019-05-21T11:41:51.784Z,82.85
2019-05-21T11:44:26.405Z,70.22
2019-05-21T11:49:31.938Z,79.80
2019-05-21T11:52:05.233Z,79.37
2019-05-21T11:54:38.013Z,87.60
2019-05-21T11:59:42.638Z,91.42
2019-05-21T12:02:15.509Z,89.42
2019-05-21T12:04:48.354Z,92.50
2019-05-21T12:07:22.485Z,83.22
2019-05-21T12:12:26.450Z,84.62
2019-05-21T12:14:59.638Z,75.62
2019-05-21T12:17:32.945Z,80.10
2019-05-21T12:20:11.890Z,88.58
2019-05-21T12:22:44.584Z,85.45
2019-05-21T12:25:17.312Z,76.65
2019-05-21T12:27:49.739Z,77.60
2019-05-21T12:30:22.994Z,76.95
2019-05-21T12:32:56.125Z,82.37
2019-05-21T12:35:28.643Z,83.60
2019-05-21T12:38:01.151Z,77.90
2019-05-21T12:40:34.036Z,71.05
2019-05-21T12:45:38.013Z,79.10
2019-05-21T12:48:10.730Z,74.72
2019-05-21T12:50:43.424Z,75.60
2019-05-21T12:53:16.707Z,54.35
2019-05-21T12:55:50.101Z,62.60
2019-05-21T13:00:53.480Z,74.58
2019-05-21T13:03:26.092Z,69.03
2019-05-21T13:05:59.560Z,75.08
2019-05-21T13:08:33.311Z,77.30
2019-05-21T13:11:07.994Z,74.72
2019-05-21T13:13:52.979Z,85.87
2019-05-21T13:17:02.237Z,85.77
2019-05-21T13:22:50.598Z,69.15
2019-05-21T13:25:23.578Z,76.35
2019-05-21T13:35:35.019Z,66.42
2019-05-21T13:38:42.697Z,68.60
2019-05-21T13:41:18.388Z,67.22
2019-05-21T13:43:54.487Z,72.27
2019-05-21T13:47:36.263Z,76.92
2019-05-21T13:51:13.759Z,73.50
2019-05-21T13:53:50.583Z,66.25
2019-05-21T13:56:56.953Z,65.60
2019-05-21T13:59:29.305Z,63.83
2019-05-21T14:02:02.089Z,65.32
2019-05-21T14:04:34.543Z,66.30
2019-05-21T14:07:07.225Z,65.00
2019-05-21T14:09:39.383Z,66.40
2019-05-21T14:12:12.894Z,63.70
2019-05-21T14:14:45.969Z,60.20
2019-05-21T14:17:19.529Z,70.80
2019-05-21T14:22:23.930Z,64.10
2019-05-21T14:24:56.535Z,64.22
2019-05-21T14:31:09.081Z,69.25
2019-05-21T14:34:00.160Z,64.22
2019-05-21T14:36:35.255Z,65.40
2019-05-21T14:39:10.294Z,76.80
2019-05-21T14:41:42.617Z,68.28
2019-05-21T14:44:15.116Z,68.97
2019-05-21T14:46:47.552Z,65.62
2019-05-21T14:51:52.395Z,70.62
2019-05-21T14:54:27.055Z,71.25
2019-05-21T14:56:58.939Z,68.90
2019-05-21T14:59:33.005Z,72.50
2019-05-21T15:02:05.679Z,74.12
2019-05-21T15:07:09.734Z,76.62
2019-05-21T15:12:13.219Z,78.55
2019-05-21T15:14:45.835Z,84.28
2019-05-21T15:17:18.145Z,77.32
2019-05-21T15:19:55.539Z,79.65
2019-05-21T15:22:28.061Z,79.20
2019-05-21T15:32:09.387Z,76.65
2019-05-21T15:34:41.760Z,72.82
2019-05-21T15:37:14.272Z,76.70
2019-05-21T15:42:17.912Z,87.33
2019-05-21T15:44:51.075Z,75.03
2019-05-21T15:47:23.233Z,71.62
2019-05-21T15:49:55.691Z,78.07
2019-05-21T15:52:28.029Z,75.50
2019-05-21T15:55:00.509Z,73.25
2019-05-21T15:57:32.773Z,71.30
2019-05-21T16:00:06.748Z,69.45
2019-05-21T16:02:39.433Z,74.00
2019-05-21T16:05:12.335Z,78.35
2019-05-21T16:07:44.782Z,82.37
2019-05-21T16:10:18.741Z,74.53
2019-05-21T16:12:54.238Z,78.02
2019-05-21T16:15:26.363Z,79.75
2019-05-21T16:17:58.732Z,77.12
2019-05-21T16:20:33.178Z,77.45
2019-05-21T16:23:05.428Z,77.62
2019-05-21T16:25:37.920Z,74.97
2019-05-21T16:30:41.845Z,75.72
2019-05-21T16:33:14.536Z,75.57
2019-05-21T16:35:47.758Z,72.53
2019-05-21T16:38:20.304Z,75.47
2019-05-21T16:40:52.681Z,75.47
2019-05-21T16:43:26.400Z,72.62
2019-05-21T16:45:58.794Z,84.15
2019-05-21T16:51:02.914Z,71.50
2019-05-21T16:53:37.415Z,77.65
2019-05-21T16:56:11.488Z,77.03
2019-05-21T16:58:44.402Z,74.62
2019-05-21T17:01:16.856Z,76.25
2019-05-21T17:03:59.614Z,75.95
2019-05-21T17:06:23.675Z,68.42
2019-05-21T17:08:56.480Z,74.65
2019-05-21T17:14:00.543Z,72.53
2019-05-21T17:16:33.712Z,73.92
2019-05-21T17:19:06.292Z,77.75
2019-05-21T17:21:38.781Z,81.45
2019-05-21T17:24:11.531Z,75.10
2019-05-21T17:26:45.494Z,77.45
2019-05-21T17:29:18.261Z,87.45
2019-05-21T17:31:50.623Z,81.47
2019-05-21T17:34:23.418Z,90.50
2019-05-21T17:36:57.427Z,83.62
2019-05-21T17:39:30.935Z,92.17
2019-05-21T17:42:14.833Z,86.40
2019-05-21T17:44:37.938Z,92.05
2019-05-21T17:47:10.306Z,80.75
2019-05-21T17:49:42.977Z,90.60
2019-05-21T17:52:15.585Z,87.97
2019-05-21T17:54:56.700Z,94.40
2019-05-21T17:57:22.556Z,85.12
2019-05-21T17:59:55.319Z,88.60
2019-05-21T18:02:28.978Z,89.77
2019-05-21T18:05:16.237Z,83.90
2019-05-21T18:07:48.878Z,90.03
2019-05-21T18:10:21.772Z,81.10
2019-05-21T18:15:26.147Z,90.38
2019-05-21T18:17:59.166Z,79.30
2019-05-21T18:20:32.350Z,87.78
2019-05-21T18:25:36.518Z,77.53
2019-05-21T18:28:09.109Z,99.37
2019-05-21T18:30:42.113Z,85.50
2019-05-21T18:33:14.565Z,88.00
2019-05-21T18:38:18.684Z,82.33
2019-05-21T18:40:51.250Z,85.15
2019-05-21T18:43:26.482Z,77.27
2019-05-21T18:45:59.187Z,74.03
2019-05-21T18:48:31.619Z,72.55
2019-05-21T18:51:05.262Z,62.93
2019-05-21T18:53:37.515Z,76.20
2019-05-21T18:56:10.229Z,66.95
2019-05-21T18:58:42.737Z,65.45
2019-05-21T19:01:17.760Z,60.20
2019-05-21T19:03:51.354Z,68.33
2019-05-21T19:06:24.049Z,69.82
2019-05-21T19:08:57.069Z,68.52
2019-05-21T19:11:29.327Z,81.72
2019-05-21T19:14:01.895Z,81.47
2019-05-21T19:16:34.523Z,88.37
2019-05-21T19:21:38.077Z,79.15
2019-05-21T19:24:10.496Z,79.40
2019-05-21T19:26:44.144Z,82.60
2019-05-21T19:29:16.907Z,84.70
2019-05-21T19:31:49.492Z,93.52
2019-05-21T19:34:22.050Z,91.60
2019-05-21T19:36:54.763Z,90.42
2019-05-21T19:39:27.377Z,88.47
2019-05-21T19:44:31.118Z,87.33
2019-05-21T19:47:03.494Z,76.92
2019-05-21T19:49:35.881Z,76.80
2019-05-21T19:52:08.504Z,85.40
2019-05-21T19:54:41.418Z,79.37
2019-05-21T19:59:44.790Z,89.52
2019-05-21T20:02:17.082Z,84.42
2019-05-21T20:04:49.834Z,80.20
2019-05-21T20:07:23.483Z,83.12
2019-05-21T20:09:56.989Z,88.82
2019-05-21T20:12:30.242Z,93.25
2019-05-21T20:15:03.951Z,90.35
2019-05-21T20:17:39.380Z,87.95
2019-05-21T20:20:13.168Z,86.80
2019-05-21T20:22:46.515Z,86.20
2019-05-21T20:25:19.586Z,92.78
2019-05-21T20:27:51.834Z,85.77
2019-05-21T20:30:26.131Z,99.20
2019-05-21T20:32:58.654Z,84.62
2019-05-21T20:38:04.639Z,82.35
2019-05-21T20:40:37.891Z,77.85
2019-05-21T20:43:10.797Z,77.27
2019-05-21T20:45:44.632Z,82.88
2019-05-21T20:48:19.056Z,74.12
2019-05-21T20:50:53.128Z,70.47
2019-05-21T20:53:25.478Z,73.55
2019-05-21T20:55:58.302Z,72.00
2019-05-21T20:58:31.112Z,64.60
2019-05-21T21:03:35.839Z,57.98
2019-05-21T21:06:09.382Z,58.20
2019-05-21T21:08:42.277Z,60.38
2019-05-21T21:11:15.300Z,56.25
2019-05-21T21:13:49.489Z,54.15
2019-05-21T21:16:22.655Z,63.60
2019-05-21T21:18:55.181Z,64.30
2019-05-21T21:21:28.246Z,52.83
2019-05-21T21:24:20.512Z,62.67
2019-05-21T21:26:54.782Z,57.13
2019-05-21T21:29:27.147Z,60.15
2019-05-21T21:31:59.879Z,53.28
2019-05-21T21:34:32.884Z,60.10
2019-05-21T21:37:06.828Z,65.28
2019-05-21T21:39:39.591Z,59.38
2019-05-21T21:42:12.422Z,59.33
2019-05-21T21:44:45.849Z,63.15
2019-05-21T21:47:19.099Z,70.15
2019-05-21T21:49:52.952Z,75.00
2019-05-21T21:52:26.188Z,73.22
2019-05-21T21:54:58.534Z,73.17
2019-05-21T21:57:31.804Z,66.10
2019-05-21T22:02:38.474Z,73.42
2019-05-21T22:05:12.229Z,75.28
2019-05-21T22:07:52.309Z,68.95
2019-05-21T22:10:24.559Z,65.50
2019-05-21T22:12:57.469Z,74.15
2019-05-21T22:15:29.831Z,66.67
2019-05-21T22:18:02.560Z,71.20
2019-05-21T22:20:36.004Z,79.53
2019-05-21T22:23:09.281Z,72.08
2019-05-21T22:25:41.622Z,65.45
2019-05-21T22:28:14.497Z,68.33
2019-05-21T22:30:46.996Z,63.55
2019-05-21T22:33:19.878Z,65.47
2019-05-21T22:35:52.187Z,50.28
2019-05-21T22:38:24.923Z,54.45
2019-05-21T22:40:57.240Z,50.40
2019-05-21T22:43:30.512Z,53.60
2019-05-21T22:46:02.627Z,48.85
2019-05-21T22:48:37.754Z,53.95
2019-05-21T22:51:09.984Z,52.23
2019-05-21T22:53:42.452Z,47.70
2019-05-21T22:56:15.481Z,46.73
2019-05-21T22:58:48.380Z,48.78
2019-05-21T23:01:23.083Z,55.03
2019-05-21T23:03:55.832Z,50.58
2019-05-21T23:06:27.957Z,57.70
2019-05-21T23:09:00.660Z,57.03
2019-05-21T23:11:34.529Z,58.13
2019-05-21T23:14:06.862Z,61.00
2019-05-21T23:16:42.068Z,57.80
2019-05-21T23:19:31.812Z,47.17
2019-05-21T23:22:10.309Z,47.17
2019-05-21T23:24:43.423Z,63.00
2019-05-21T23:27:19.369Z,55.00
2019-05-21T23:29:52.353Z,48.23
2019-05-21T23:32:24.675Z,48.65
2019-05-21T23:34:57.182Z,50.43
2019-05-21T23:37:29.941Z,59.23
2019-05-21T23:40:02.863Z,40.98
2019-05-21T23:42:35.488Z,52.80
2019-05-21T23:45:11.229Z,56.53
2019-05-21T23:47:43.457Z,55.43
2019-05-21T23:50:17.596Z,57.25
2019-05-21T23:52:50.354Z,57.08
2019-05-21T23:55:23.094Z,64.82
2019-05-21T23:57:55.512Z,56.90
